Time;durP1;ratioP1;P1;durP2;ratioP2;P2;SDS_P1;SDS_P2;PMS_P1;PMS_P2;Temp;Humidity;BMP_temperature;BMP_pressure;BME280_temperature;BME280_humidity;BME280_pressure;Samples;Min_cycle;Max_cycle;Signal;HPM_P1;HPM_P2
2022/03/10 00:01:17;;;;;;;41.13;23.83;;;;;;;8.41;39.34;102367.16;5172829;28;20427;-55
2022/03/10 00:03:50;;;;;;;39.67;22.10;;;;;;;8.33;39.14;102359.72;5171216;28;20426;-51
2022/03/10 00:06:22;;;;;;;41.63;23.58;;;;;;;8.36;39.31;102374.44;5180040;28;20425;-51
2022/03/10 00:08:54;;;;;;;38.25;22.08;;;;;;;8.31;39.40;102372.97;5176992;28;20512;-52
2022/03/10 00:11:27;;;;;;;42.30;23.97;;;;;;;8.25;39.42;102367.25;5174243;28;20520;-52
2022/03/10 00:14:00;;;;;;;33.42;22.80;;;;;;;8.20;39.55;102367.53;5175743;28;20861;-50
2022/03/10 00:16:35;;;;;;;39.63;23.00;;;;;;;8.18;39.40;102372.06;5175999;28;21003;-56
2022/03/10 00:19:07;;;;;;;36.37;22.63;;;;;;;7.94;39.67;102331.50;5174236;28;20907;-51
2022/03/10 00:21:40;;;;;;;39.72;22.30;;;;;;;8.09;39.50;102362.94;5174077;28;20496;-49
2022/03/10 00:24:14;;;;;;;43.30;25.58;;;;;;;8.04;39.55;102369.44;5173880;28;20429;-53
2022/03/10 00:26:47;;;;;;;45.20;22.45;;;;;;;7.93;39.71;102356.09;5171582;28;20411;-50
2022/03/10 00:29:21;;;;;;;39.85;23.95;;;;;;;7.96;39.83;102361.16;5173138;28;20909;-49
2022/03/10 00:31:53;;;;;;;43.60;22.10;;;;;;;7.94;39.79;102365.69;5169537;28;20437;-52
2022/03/10 00:34:26;;;;;;;37.55;23.45;;;;;;;7.93;39.87;102366.63;5166005;28;20450;-60
2022/03/10 00:36:59;;;;;;;37.95;22.85;;;;;;;7.93;39.82;102361.34;5182720;28;20403;-53
2022/03/10 00:39:31;;;;;;;42.42;23.50;;;;;;;7.91;39.70;102360.63;5168808;28;20579;-55
2022/03/10 00:42:04;;;;;;;33.87;22.03;;;;;;;7.81;39.91;102337.53;5157396;28;20546;-50
2022/03/10 00:44:38;;;;;;;39.15;23.27;;;;;;;7.65;39.78;102315.75;5171334;28;20823;-51
2022/03/10 00:47:11;;;;;;;37.88;23.55;;;;;;;7.77;39.99;102340.41;5167722;28;20849;-52
2022/03/10 00:49:43;;;;;;;43.67;24.00;;;;;;;7.78;39.87;102348.22;5176061;28;20529;-48
2022/03/10 00:52:16;;;;;;;35.65;23.25;;;;;;;7.75;39.89;102350.22;5169868;28;20408;-51
2022/03/10 00:54:48;;;;;;;34.28;21.02;;;;;;;7.75;40.00;102356.31;5174681;28;20407;-54
2022/03/10 00:57:21;;;;;;;39.03;23.80;;;;;;;7.75;39.90;102353.69;5171777;28;20515;-49
2022/03/10 00:59:55;;;;;;;36.42;22.55;;;;;;;7.74;39.88;102367.78;5174355;28;20425;-52
2022/03/10 01:02:27;;;;;;;33.90;22.58;;;;;;;7.70;39.92;102358.38;5173071;28;20460;-54
2022/03/10 01:04:59;;;;;;;37.38;22.77;;;;;;;7.67;40.17;102358.56;5168273;28;20501;-47
2022/03/10 01:07:32;;;;;;;36.08;22.77;;;;;;;7.66;39.96;102359.50;5180990;28;20942;-58
2022/03/10 01:10:06;;;;;;;37.95;24.00;;;;;;;7.65;40.28;102355.19;5178413;28;20881;-51
2022/03/10 01:12:41;;;;;;;40.35;23.65;;;;;;;7.61;40.22;102351.88;5174936;28;20528;-54
2022/03/10 01:15:16;;;;;;;41.95;23.73;;;;;;;7.61;40.12;102356.28;5181918;28;20482;-50
2022/03/10 01:17:49;;;;;;;41.60;23.45;;;;;;;7.54;40.32;102347.09;5178925;28;20532;-50
2022/03/10 01:20:25;;;;;;;41.25;23.60;;;;;;;7.59;40.22;102366.91;5180917;28;20973;-51
2022/03/10 01:22:58;;;;;;;40.20;24.23;;;;;;;7.61;40.26;102361.56;5177313;28;20539;-48
2022/03/10 01:25:30;;;;;;;44.30;24.50;;;;;;;7.61;40.31;102356.28;5172643;28;20425;-55
2022/03/10 01:28:03;;;;;;;41.38;24.58;;;;;;;7.59;40.33;102359.03;5182077;28;20420;-52
2022/03/10 01:30:37;;;;;;;39.60;23.83;;;;;;;7.57;40.47;102354.81;5176784;28;20917;-52
2022/03/10 01:33:10;;;;;;;40.43;23.57;;;;;;;7.37;40.37;102327.94;5178532;28;20414;-51
2022/03/10 01:35:42;;;;;;;41.92;24.83;;;;;;;7.55;40.55;102346.16;5182997;28;20508;-51
2022/03/10 01:38:14;;;;;;;41.80;25.20;;;;;;;7.52;40.45;102351.59;5171543;28;20776;-59
2022/03/10 01:40:47;;;;;;;44.30;25.13;;;;;;;7.52;40.56;102347.19;5176697;28;20557;-49
2022/03/10 01:43:19;;;;;;;41.53;25.05;;;;;;;7.46;40.69;102338.81;5178334;28;20514;-50
2022/03/10 01:45:53;;;;;;;46.15;23.70;;;;;;;7.46;40.53;102336.19;5180531;28;20600;-55
2022/03/10 01:48:26;;;;;;;52.55;26.17;;;;;;;7.41;40.66;102338.28;5178545;28;20440;-48
2022/03/10 01:50:58;;;;;;;46.33;24.95;;;;;;;7.33;40.81;102336.09;5174190;28;20920;-58
2022/03/10 01:53:31;;;;;;;48.28;24.90;;;;;;;7.35;40.62;102337.69;5178324;28;20415;-53
2022/03/10 01:56:03;;;;;;;49.67;27.15;;;;;;;7.32;41.17;102345.75;5174244;28;20524;-50
2022/03/10 01:58:37;;;;;;;43.28;25.75;;;;;;;7.29;40.97;102340.69;5176518;28;20444;-59
2022/03/10 02:01:11;;;;;;;44.22;27.05;;;;;;;6.64;41.26;102248.25;5176104;28;20556;-53
2022/03/10 02:03:43;;;;;;;42.38;26.75;;;;;;;7.27;41.28;102347.81;5181259;28;20500;-52
2022/03/10 02:06:16;;;;;;;46.38;24.77;;;;;;;7.26;41.13;102350.53;5173690;28;20857;-53
2022/03/10 02:11:39;;;;;;;41.73;25.50;;;;;;;7.27;41.26;102366.19;5179909;28;20442;-48
2022/03/10 02:17:21;;;;;;;47.28;24.77;;;;;;;7.24;41.37;102350.63;5178510;28;20421;-56
2022/03/10 02:19:56;;;;;;;44.40;25.93;;;;;;;7.22;41.72;102357.75;5173607;28;20502;-53
2022/03/10 02:22:30;;;;;;;45.55;25.35;;;;;;;7.21;41.77;102358.69;5170924;28;20437;-50
2022/03/10 02:25:03;;;;;;;48.78;25.98;;;;;;;7.15;41.79;102346.78;5177225;28;20939;-49
2022/03/10 02:27:35;;;;;;;43.28;25.55;;;;;;;7.15;41.93;102348.53;5181975;28;20970;-48
2022/03/10 02:30:09;;;;;;;44.30;25.25;;;;;;;7.12;41.95;102353.97;5175172;28;20509;-48
2022/03/10 02:32:41;;;;;;;41.40;26.40;;;;;;;7.07;41.90;102356.88;5174350;28;20425;-48
2022/03/10 02:35:14;;;;;;;46.50;25.23;;;;;;;6.98;41.99;102346.06;5180434;28;20496;-49
2022/03/10 02:37:49;;;;;;;45.03;26.50;;;;;;;6.73;42.19;102315.97;5171050;28;20509;-47
2022/03/10 02:40:22;;;;;;;46.40;27.55;;;;;;;6.95;42.27;102351.50;5180193;28;20442;-49
2022/03/10 02:42:55;;;;;;;43.97;27.25;;;;;;;6.90;42.58;102347.34;5170400;28;20452;-47
2022/03/10 02:45:27;;;;;;;46.93;26.33;;;;;;;6.86;42.49;102348.47;5177955;28;20558;-50
2022/03/10 02:48:00;;;;;;;38.22;25.73;;;;;;;6.85;42.50;102354.66;5174521;28;20411;-56
2022/03/10 02:50:33;;;;;;;42.30;26.23;;;;;;;6.81;42.97;102355.75;5172539;28;20420;-47
2022/03/10 02:53:06;;;;;;;45.92;27.73;;;;;;;6.84;42.75;102354.72;5171790;28;20454;-49
2022/03/10 02:55:39;;;;;;;47.83;26.48;;;;;;;6.56;42.90;102321.34;5173317;28;20525;-49
2022/03/10 02:58:12;;;;;;;49.53;28.52;;;;;;;6.77;42.81;102354.22;5172550;28;20456;-48
2022/03/10 03:00:44;;;;;;;50.22;26.85;;;;;;;6.75;42.72;102366.63;5180928;28;20531;-49
2022/03/10 03:03:17;;;;;;;45.73;26.87;;;;;;;6.73;42.77;102363.22;5176791;28;20403;-50
2022/03/10 03:05:49;;;;;;;56.03;30.70;;;;;;;6.69;42.99;102367.81;5171071;28;20405;-55
2022/03/10 03:08:23;;;;;;;50.95;30.10;;;;;;;6.69;42.96;102365.19;5174101;28;20496;-53
2022/03/10 03:10:55;;;;;;;46.83;30.58;;;;;;;6.61;43.27;102354.25;5174124;28;20798;-50
2022/03/10 03:13:28;;;;;;;52.05;30.48;;;;;;;6.67;43.13;102363.59;5178339;28;20544;-49
2022/03/10 03:16:00;;;;;;;55.10;31.50;;;;;;;6.67;43.33;102364.41;5171503;28;20413;-48
2022/03/10 03:18:33;;;;;;;51.42;30.67;;;;;;;6.52;43.47;102338.19;5171371;28;20738;-50
2022/03/10 03:21:05;;;;;;;52.90;30.60;;;;;;;6.66;43.19;102367.16;5182762;28;20814;-51
2022/03/10 03:23:39;;;;;;;48.72;31.75;;;;;;;6.62;43.18;102370.84;5171829;28;22304;-53
2022/03/10 03:26:12;;;;;;;52.75;32.25;;;;;;;6.60;43.48;102376.22;5171428;28;20834;-50
2022/03/10 03:28:44;;;;;;;55.83;31.67;;;;;;;6.57;43.32;102372.91;5178929;28;22076;-48
2022/03/10 03:31:17;;;;;;;47.35;30.70;;;;;;;6.37;43.78;102340.75;5176261;28;20411;-50
2022/03/10 03:33:50;;;;;;;50.27;29.37;;;;;;;6.51;43.60;102371.47;5173670;28;20402;-52
2022/03/10 03:36:23;;;;;;;44.73;27.80;;;;;;;6.54;43.75;102376.56;5175272;28;20990;-55
2022/03/10 03:38:57;;;;;;;51.63;29.90;;;;;;;6.47;43.72;102367.31;5169693;28;20741;-53
2022/03/10 03:41:30;;;;;;;46.78;27.98;;;;;;;6.43;43.61;102371.03;5183600;28;20415;-53
2022/03/10 03:44:03;;;;;;;49.95;28.90;;;;;;;6.44;43.80;102388.47;5174624;28;20466;-51
2022/03/10 03:46:35;;;;;;;53.40;30.75;;;;;;;6.40;43.56;102387.81;5179735;28;20516;-58
2022/03/10 03:49:08;;;;;;;51.60;29.15;;;;;;;6.38;43.95;102384.44;5178281;28;20434;-52
2022/03/10 03:51:40;;;;;;;48.58;29.80;;;;;;;6.08;44.05;102338.88;5176901;28;20526;-53
2022/03/10 03:54:14;;;;;;;49.70;29.65;;;;;;;6.35;44.08;102388.97;5179043;28;20815;-51
2022/03/10 03:56:47;;;;;;;46.55;29.70;;;;;;;6.31;44.25;102398.81;5178190;28;20413;-53
2022/03/10 03:59:20;;;;;;;47.20;27.63;;;;;;;6.28;44.21;102398.13;5176723;28;20509;-51
2022/03/10 04:01:52;;;;;;;53.55;28.52;;;;;;;6.22;44.28;102399.31;5175913;28;20419;-49
2022/03/10 04:04:25;;;;;;;47.40;28.52;;;;;;;6.22;44.33;102407.16;5169786;28;20433;-49
2022/03/10 04:06:57;;;;;;;47.67;28.10;;;;;;;6.21;44.35;102402.88;5172588;28;20948;-51
2022/03/10 04:09:31;;;;;;;50.72;29.63;;;;;;;6.18;44.64;102398.63;5174639;28;20459;-49
2022/03/10 04:12:05;;;;;;;49.65;29.27;;;;;;;6.13;44.75;102399.81;5178742;28;20414;-48
2022/03/10 04:14:37;;;;;;;45.80;27.95;;;;;;;6.08;44.80;102397.44;5178989;28;20983;-50
2022/03/10 04:17:10;;;;;;;47.90;29.80;;;;;;;6.06;44.79;102401.06;5172680;28;20541;-48
2022/03/10 04:19:42;;;;;;;41.17;27.73;;;;;;;5.98;44.91;102397.09;5168642;28;21001;-50
2022/03/10 04:22:15;;;;;;;48.58;29.67;;;;;;;5.77;45.02;102375.44;5169394;28;20409;-48
2022/03/10 04:24:48;;;;;;;48.15;28.70;;;;;;;5.74;44.84;102372.13;5186447;28;20430;-53
2022/03/10 04:27:21;;;;;;;51.67;31.55;;;;;;;5.77;44.94;102399.03;5179275;28;20924;-57
2022/03/10 04:29:53;;;;;;;64.05;30.52;;;;;;;5.73;45.06;102396.66;5171932;28;20439;-50
2022/03/10 04:32:26;;;;;;;46.20;30.57;;;;;;;5.65;45.37;102393.59;5167548;28;20408;-52
2022/03/10 04:34:58;;;;;;;51.60;30.83;;;;;;;5.68;45.20;102396.03;5176290;28;20834;-56
2022/03/10 04:37:31;;;;;;;45.55;30.48;;;;;;;5.44;45.38;102364.09;5174922;28;20415;-52
2022/03/10 04:40:06;;;;;;;50.87;30.83;;;;;;;5.57;45.57;102399.19;5171769;28;20889;-48
2022/03/10 04:42:40;;;;;;;51.30;30.70;;;;;;;5.59;45.52;102401.75;5170639;28;20438;-52
2022/03/10 04:45:13;;;;;;;45.15;29.40;;;;;;;5.53;45.59;102395.06;5175819;28;20429;-52
2022/03/10 04:47:46;;;;;;;51.33;30.83;;;;;;;5.55;45.57;102396.69;5170669;28;20462;-49
2022/03/10 04:50:19;;;;;;;46.03;30.42;;;;;;;5.52;45.58;102399.47;5169711;28;20485;-49
2022/03/10 04:52:51;;;;;;;54.38;31.80;;;;;;;5.19;46.12;102359.25;5158446;28;20462;-50
2022/03/10 04:55:25;;;;;;;54.35;31.98;;;;;;;5.45;46.17;102397.22;5178452;28;20419;-53
2022/03/10 04:57:58;;;;;;;43.93;29.33;;;;;;;5.44;46.00;102398.16;5170981;28;20495;-52
2022/03/10 05:00:30;;;;;;;54.00;31.17;;;;;;;5.41;46.31;102404.38;5183590;28;20802;-57
2022/03/10 05:03:03;;;;;;;50.47;30.65;;;;;;;5.40;46.14;102400.09;5175234;28;20434;-50
2022/03/10 05:05:35;;;;;;;49.20;31.98;;;;;;;5.38;46.45;102396.69;5179535;28;20426;-52
2022/03/10 05:08:08;;;;;;;50.67;31.45;;;;;;;5.35;46.47;102396.84;5179585;28;20767;-54
2022/03/10 05:10:42;;;;;;;49.15;30.90;;;;;;;5.34;46.34;102405.63;5176129;28;20434;-49
2022/03/10 05:13:14;;;;;;;45.13;30.90;;;;;;;5.27;46.47;102405.09;5176260;28;20442;-48
2022/03/10 05:15:47;;;;;;;45.92;30.85;;;;;;;5.16;46.66;102407.38;5171903;28;20829;-50
2022/03/10 05:18:19;;;;;;;51.05;31.35;;;;;;;5.16;46.89;102396.06;5169238;28;20509;-50
2022/03/10 05:20:52;;;;;;;42.97;31.17;;;;;;;5.15;47.01;102405.72;5174651;28;20513;-49
2022/03/10 05:23:24;;;;;;;51.72;33.88;;;;;;;5.07;47.06;102398.22;5173598;28;20452;-53
2022/03/10 05:25:58;;;;;;;49.65;31.20;;;;;;;4.89;46.74;102357.22;5176024;28;20456;-52
2022/03/10 05:28:31;;;;;;;50.25;32.40;;;;;;;5.15;47.01;102405.72;5170421;28;20511;-54
2022/03/10 05:31:03;;;;;;;50.97;31.83;;;;;;;5.12;47.19;102420.72;5179198;28;20426;-53
2022/03/10 05:33:36;;;;;;;49.15;32.90;;;;;;;5.07;47.08;102408.69;5169161;28;20878;-50
2022/03/10 05:36:08;;;;;;;54.70;34.67;;;;;;;5.06;47.30;102414.84;5172947;28;21170;-52
2022/03/10 05:38:41;;;;;;;53.67;33.45;;;;;;;5.05;47.39;102413.16;5175562;28;20910;-49
2022/03/10 05:41:15;;;;;;;53.83;34.40;;;;;;;5.03;47.39;102407.16;5170551;28;20751;-51
2022/03/10 05:43:48;;;;;;;47.08;31.73;;;;;;;5.01;47.34;102402.91;5170569;28;20413;-51
2022/03/10 05:46:20;;;;;;;54.40;36.35;;;;;;;5.00;47.43;102403.84;5171234;28;20494;-50
2022/03/10 05:48:53;;;;;;;51.67;33.05;;;;;;;4.98;47.58;102398.66;5178335;28;20399;-48
2022/03/10 05:51:25;;;;;;;49.58;33.83;;;;;;;4.91;47.63;102397.28;5171995;28;20476;-52
2022/03/10 05:53:58;;;;;;;47.65;32.55;;;;;;;4.96;47.79;102400.53;5171364;28;20900;-51
2022/03/10 05:56:31;;;;;;;55.53;33.20;;;;;;;4.93;47.96;102395.44;5177648;28;20777;-54
2022/03/10 05:59:10;;;;;;;51.25;33.42;;;;;;;4.95;48.13;102404.03;5180902;28;20495;-48
2022/03/10 06:01:42;;;;;;;50.95;33.88;;;;;;;4.86;48.18;102386.16;5171566;28;20950;-49
2022/03/10 06:04:15;;;;;;;52.03;32.88;;;;;;;4.93;47.93;102405.91;5178516;28;23229;-48
2022/03/10 06:06:47;;;;;;;50.28;32.95;;;;;;;4.94;48.42;102412.00;5185781;28;20395;-50
2022/03/10 06:09:19;;;;;;;51.30;33.65;;;;;;;4.92;48.47;102404.19;5182872;28;20502;-47
2022/03/10 06:11:53;;;;;;;52.70;35.22;;;;;;;4.92;48.58;102392.88;5170728;28;20484;-48
2022/03/10 06:14:26;;;;;;;48.25;32.55;;;;;;;4.89;48.41;102388.63;5148651;28;20942;-54
2022/03/10 06:16:58;;;;;;;52.73;33.80;;;;;;;4.93;48.44;102398.06;5177385;28;20467;-52
2022/03/10 06:19:30;;;;;;;56.78;34.15;;;;;;;4.94;48.68;102399.75;5173812;28;20734;-47
2022/03/10 06:22:03;;;;;;;48.83;31.95;;;;;;;4.89;48.50;102399.13;5171697;28;20801;-48
2022/03/10 06:24:35;;;;;;;57.90;34.75;;;;;;;4.96;48.52;102405.75;5179423;28;20497;-53
2022/03/10 06:27:09;;;;;;;46.28;32.10;;;;;;;4.98;48.59;102401.28;5181400;28;20511;-50
2022/03/10 06:29:43;;;;;;;45.83;32.25;;;;;;;5.01;48.72;102402.91;5169500;28;20453;-49
2022/03/10 06:32:18;;;;;;;48.63;34.22;;;;;;;5.03;48.78;102401.06;5169383;28;20408;-52
2022/03/10 06:34:53;;;;;;;52.20;33.97;;;;;;;5.07;48.88;102407.84;5188840;28;20426;-48
2022/03/10 06:37:25;;;;;;;50.53;32.17;;;;;;;5.08;49.01;102410.41;5174228;28;20440;-49
2022/03/10 06:39:58;;;;;;;53.65;31.05;;;;;;;5.08;49.15;102415.63;5168134;28;20978;-55
2022/03/10 06:42:33;;;;;;;49.28;31.90;;;;;;;4.88;49.25;102381.72;5168941;28;20518;-50
2022/03/10 06:45:07;;;;;;;52.15;31.27;;;;;;;5.05;49.08;102391.38;5169460;28;20428;-49
2022/03/10 06:47:40;;;;;;;48.10;30.88;;;;;;;5.29;49.16;102408.47;5169437;28;20435;-53
2022/03/10 06:50:13;;;;;;;50.35;30.63;;;;;;;5.37;49.29;102421.19;5175695;28;20950;-48
2022/03/10 06:52:45;;;;;;;46.50;29.80;;;;;;;5.44;49.18;102417.31;5172525;28;20497;-48
2022/03/10 06:55:19;;;;;;;50.17;31.65;;;;;;;5.52;49.23;102422.19;5172622;28;20505;-58
2022/03/10 06:57:53;;;;;;;55.33;31.15;;;;;;;5.44;49.32;102395.53;5179912;28;20427;-50
2022/03/10 07:00:26;;;;;;;50.15;32.38;;;;;;;5.69;49.38;102426.56;5168078;28;20415;-51
2022/03/10 07:02:58;;;;;;;48.95;30.75;;;;;;;5.76;49.05;102417.44;5174438;28;20887;-47
2022/03/10 07:05:31;;;;;;;53.33;30.77;;;;;;;5.86;49.12;102429.16;5168042;28;20907;-50
2022/03/10 07:08:03;;;;;;;48.53;29.17;;;;;;;5.86;49.08;102413.44;5165952;28;20797;-50
2022/03/10 07:10:36;;;;;;;43.83;28.30;;;;;;;6.02;48.90;102444.13;5166811;28;20475;-52
2022/03/10 07:13:13;;;;;;;49.03;27.92;;;;;;;6.09;49.23;102429.75;5177641;28;20425;-52
2022/03/10 07:15:46;;;;;;;44.97;29.03;;;;;;;6.21;49.24;102455.34;5184314;28;20465;-52
2022/03/10 07:18:19;;;;;;;52.13;29.80;;;;;;;6.55;48.97;102427.28;5170820;28;20469;-50
2022/03/10 07:20:51;;;;;;;45.55;29.50;;;;;;;7.77;48.04;102432.47;5162956;28;20420;-47
2022/03/10 07:23:24;;;;;;;46.42;26.88;;;;;;;9.32;46.60;102420.03;5169147;28;20430;-53
2022/03/10 07:25:56;;;;;;;40.90;26.17;;;;;;;10.65;45.18;102399.31;5178651;28;20498;-48
2022/03/10 07:28:31;;;;;;;46.38;25.27;;;;;;;11.88;44.21;102423.53;5173872;28;20455;-49
2022/03/10 07:31:03;;;;;;;45.00;25.98;;;;;;;12.80;43.34;102432.09;5183538;28;20926;-51
2022/03/10 07:33:35;;;;;;;41.35;24.80;;;;;;;13.64;42.52;102421.56;5173367;28;20429;-49
2022/03/10 07:36:11;;;;;;;42.40;24.65;;;;;;;14.36;41.73;102420.59;5170752;28;20512;-54
2022/03/10 07:38:43;;;;;;;45.00;24.70;;;;;;;15.16;40.87;102424.09;5171202;28;20446;-48
2022/03/10 07:41:15;;;;;;;45.53;24.95;;;;;;;15.99;39.95;102424.34;5165277;28;20417;-57
2022/03/10 07:43:51;;;;;;;43.55;23.90;;;;;;;16.69;39.25;102427.31;5183231;28;20853;-54
2022/03/10 07:46:24;;;;;;;42.38;24.38;;;;;;;17.37;38.25;102427.59;5179938;28;20518;-48
2022/03/10 07:48:56;;;;;;;43.00;25.30;;;;;;;18.03;37.59;102422.72;5168909;28;20504;-54
2022/03/10 07:51:29;;;;;;;44.03;24.20;;;;;;;18.59;37.07;102430.09;5170919;28;20979;-52
2022/03/10 07:54:01;;;;;;;43.47;23.20;;;;;;;19.10;36.31;102432.66;5178832;28;20459;-53
2022/03/10 07:56:34;;;;;;;41.30;23.38;;;;;;;19.75;35.63;102434.47;5174076;28;20885;-52
2022/03/10 07:59:08;;;;;;;40.42;24.25;;;;;;;20.19;34.93;102401.78;5177111;28;20913;-54
2022/03/10 08:01:41;;;;;;;41.97;24.07;;;;;;;20.49;34.45;102387.53;5171503;28;20523;-49
2022/03/10 08:04:13;;;;;;;33.95;21.55;;;;;;;20.75;34.20;102423.97;5179549;28;20426;-51
2022/03/10 08:06:46;;;;;;;37.22;22.73;;;;;;;20.52;34.32;102426.63;5176362;28;20399;-54
2022/03/10 08:09:18;;;;;;;35.33;23.17;;;;;;;20.65;34.11;102424.19;5170799;28;20496;-54
2022/03/10 08:11:51;;;;;;;37.80;23.60;;;;;;;20.92;33.64;102430.06;5184698;28;20546;-53
2022/03/10 08:14:25;;;;;;;38.63;23.92;;;;;;;21.07;33.06;102420.19;5175562;28;20426;-53
2022/03/10 08:16:57;;;;;;;40.35;23.50;;;;;;;21.32;32.49;102387.75;5173945;28;20526;-52
2022/03/10 08:19:30;;;;;;;35.95;22.35;;;;;;;21.72;32.14;102417.94;5167213;28;20507;-50
2022/03/10 08:22:06;;;;;;;38.33;25.13;;;;;;;21.70;32.05;102411.91;5166354;28;20421;-52
2022/03/10 08:24:41;;;;;;;41.50;24.33;;;;;;;22.08;31.52;102399.16;5163622;28;20423;-50
2022/03/10 08:27:14;;;;;;;37.08;24.13;;;;;;;22.50;30.68;102393.03;5169498;28;20458;-52
2022/03/10 08:29:48;;;;;;;39.33;24.30;;;;;;;22.87;30.44;102399.22;5168924;28;20423;-54
2022/03/10 08:32:25;;;;;;;39.80;24.30;;;;;;;22.76;30.17;102391.63;5166832;28;20439;-52
2022/03/10 08:34:57;;;;;;;37.72;24.40;;;;;;;22.64;30.26;102393.16;5167004;28;20416;-53
2022/03/10 08:37:30;;;;;;;36.08;24.15;;;;;;;22.53;30.11;102398.06;5170714;28;20436;-54
2022/03/10 08:40:03;;;;;;;39.70;23.30;;;;;;;22.18;30.21;102399.75;5173542;28;20513;-52
2022/03/10 08:42:35;;;;;;;38.65;24.17;;;;;;;21.78;30.27;102398.38;5166824;28;20430;-55
2022/03/10 08:45:10;;;;;;;40.28;23.83;;;;;;;21.49;30.28;102402.69;5167950;28;20903;-57
2022/03/10 08:47:43;;;;;;;38.75;24.35;;;;;;;21.69;29.93;102404.84;5169187;28;20451;-52
2022/03/10 08:50:16;;;;;;;36.35;23.52;;;;;;;21.73;29.69;102371.19;5163982;28;20412;-55
2022/03/10 08:52:49;;;;;;;32.78;22.50;;;;;;;21.97;29.51;102391.56;5166002;28;20422;-50
2022/03/10 08:55:22;;;;;;;39.75;23.35;;;;;;;22.34;29.14;102393.28;5164539;28;20514;-52
2022/03/10 08:57:55;;;;;;;37.47;23.77;;;;;;;22.38;28.86;102351.50;5165363;28;20778;-54
2022/03/10 09:00:29;;;;;;;37.42;24.27;;;;;;;22.74;28.53;102393.72;5163002;28;20415;-53
2022/03/10 09:03:02;;;;;;;40.53;24.42;;;;;;;22.99;28.39;102389.59;5171351;28;20436;-51
2022/03/10 09:05:36;;;;;;;36.83;22.80;;;;;;;23.12;28.19;102390.75;5165837;28;20846;-54
2022/03/10 09:08:09;;;;;;;42.25;25.17;;;;;;;23.09;28.41;102391.13;5169115;28;20433;-50
2022/03/10 09:10:42;;;;;;;42.65;24.30;;;;;;;22.87;28.45;102385.75;5165472;28;20452;-51
2022/03/10 09:13:14;;;;;;;36.10;23.43;;;;;;;22.29;28.97;102390.31;5171040;28;20436;-54
2022/03/10 09:15:48;;;;;;;34.73;22.93;;;;;;;21.97;29.60;102392.41;5162519;28;21038;-51
2022/03/10 09:18:21;;;;;;;42.40;25.63;;;;;;;21.56;29.85;102387.50;5168184;28;20450;-50
2022/03/10 09:20:53;;;;;;;33.65;21.77;;;;;;;21.25;30.15;102386.81;5168194;28;20488;-49
2022/03/10 09:23:26;;;;;;;36.60;24.57;;;;;;;20.69;30.60;102387.94;5166110;28;20413;-48
2022/03/10 09:25:58;;;;;;;41.75;24.38;;;;;;;20.47;30.95;102394.06;5170561;28;20428;-54
2022/03/10 09:28:31;;;;;;;37.22;24.02;;;;;;;20.17;31.38;102393.94;5170619;28;20607;-57
2022/03/10 09:31:05;;;;;;;34.03;21.45;;;;;;;19.67;31.75;102380.91;5169426;28;20425;-55
2022/03/10 09:33:37;;;;;;;33.45;22.23;;;;;;;19.04;32.43;102382.47;5169144;28;20431;-54
2022/03/10 09:36:10;;;;;;;39.87;22.27;;;;;;;18.41;32.93;102374.03;5172261;28;20487;-57
2022/03/10 09:38:43;;;;;;;35.97;22.37;;;;;;;18.00;33.34;102381.09;5176801;28;20460;-54
2022/03/10 09:41:16;;;;;;;35.90;21.92;;;;;;;17.58;33.79;102379.19;5179097;28;20428;-54
2022/03/10 09:43:50;;;;;;;37.10;21.52;;;;;;;17.18;33.98;102379.75;5174978;28;20461;-54
2022/03/10 09:46:24;;;;;;;36.90;23.67;;;;;;;16.65;34.38;102365.44;5174950;28;20777;-55
2022/03/10 09:48:56;;;;;;;38.75;23.33;;;;;;;16.30;34.60;102360.91;5168661;28;20450;-52
2022/03/10 09:51:29;;;;;;;39.73;24.17;;;;;;;16.04;34.70;102364.31;5173861;28;20542;-53
2022/03/10 09:54:01;;;;;;;40.20;24.40;;;;;;;15.73;34.82;102346.91;5172696;28;20421;-55
2022/03/10 09:56:36;;;;;;;39.95;23.67;;;;;;;15.57;34.77;102358.97;5173626;28;20510;-55
2022/03/10 09:59:08;;;;;;;41.20;23.98;;;;;;;15.40;34.90;102370.41;5167245;28;20778;-51
2022/03/10 10:01:42;;;;;;;35.63;23.38;;;;;;;15.40;34.64;102347.28;5174648;28;20517;-52
2022/03/10 10:04:15;;;;;;;39.13;23.50;;;;;;;15.31;34.71;102352.63;5167655;28;20443;-53
2022/03/10 10:07:05;;;;;;;42.50;25.67;;;;;;;15.18;34.71;102355.59;5174208;28;20489;-51
2022/03/10 10:09:47;;;;;;;41.95;24.77;;;;;;;15.07;34.75;102356.59;5172105;28;20431;-48
2022/03/10 10:12:22;;;;;;;41.10;24.95;;;;;;;14.92;34.98;102365.97;5172540;28;20458;-53
2022/03/10 10:14:56;;;;;;;49.33;25.08;;;;;;;14.86;35.01;102345.25;5171804;28;20431;-52
2022/03/10 10:17:32;;;;;;;38.38;22.00;;;;;;;14.87;35.06;102352.28;5154548;28;20924;-55
2022/03/10 10:20:06;;;;;;;40.20;23.45;;;;;;;14.84;35.07;102348.06;5161077;28;20991;-52
2022/03/10 10:22:39;;;;;;;53.08;25.83;;;;;;;14.85;34.96;102356.88;5171079;28;20501;-53
2022/03/10 10:25:11;;;;;;;38.75;23.73;;;;;;;14.81;34.99;102347.53;5169078;28;20411;-52
2022/03/10 10:27:46;;;;;;;41.67;24.02;;;;;;;14.78;34.85;102345.16;5172183;28;20481;-51
2022/03/10 10:30:19;;;;;;;38.33;22.50;;;;;;;14.83;34.91;102350.88;5176163;28;20465;-53
2022/03/10 10:32:53;;;;;;;41.03;23.70;;;;;;;14.90;34.98;102358.16;5173629;28;20438;-52
2022/03/10 10:35:25;;;;;;;42.75;24.13;;;;;;;14.90;34.89;102357.31;5166471;28;20546;-49
2022/03/10 10:37:59;;;;;;;51.80;25.23;;;;;;;15.07;34.87;102348.59;5168581;28;20423;-54
2022/03/10 10:40:33;;;;;;;44.75;24.00;;;;;;;15.09;34.58;102335.16;5177057;28;20472;-52
2022/03/10 10:43:08;;;;;;;39.53;24.88;;;;;;;15.16;34.77;102331.78;5172286;28;20803;-54
2022/03/10 10:45:41;;;;;;;43.05;24.20;;;;;;;15.38;34.66;102340.41;5170968;28;20435;-55
2022/03/10 10:48:15;;;;;;;40.47;22.55;;;;;;;15.48;34.63;102330.56;5170469;28;20436;-53
2022/03/10 10:50:47;;;;;;;36.97;22.33;;;;;;;15.64;34.59;102346.78;5166999;28;20428;-53
2022/03/10 10:53:32;;;;;;;40.15;22.52;;;;;;;15.66;34.60;102347.47;5173626;28;20435;-50
2022/03/10 10:56:05;;;;;;;40.97;21.90;;;;;;;15.74;34.66;102340.63;5177063;28;20423;-54
2022/03/10 10:58:45;;;;;;;38.17;22.00;;;;;;;15.82;34.62;102348.69;5166917;28;21424;-48
2022/03/10 11:01:31;;;;;;;36.55;20.13;;;;;;;15.80;34.72;102340.03;5170750;28;21187;-55
2022/03/10 11:04:07;;;;;;;37.75;21.10;;;;;;;15.80;34.76;102340.03;5167155;28;20839;-50
2022/03/10 11:06:41;;;;;;;43.70;22.42;;;;;;;15.82;34.74;102330.88;5171317;28;20412;-53
2022/03/10 11:09:13;;;;;;;35.63;21.67;;;;;;;15.93;34.56;102327.19;5172032;28;20795;-48
2022/03/10 11:11:46;;;;;;;39.80;20.95;;;;;;;15.93;34.54;102332.53;5169958;28;23332;-47
2022/03/10 11:14:19;;;;;;;36.40;23.15;;;;;;;15.89;34.60;102315.16;5168499;28;20522;-53
2022/03/10 11:16:52;;;;;;;36.08;21.52;;;;;;;15.79;34.47;102307.19;5165257;28;20522;-52
2022/03/10 11:19:31;;;;;;;34.33;20.13;;;;;;;15.92;34.64;102330.84;5154840;28;20412;-51
2022/03/10 11:22:26;;;;;;;40.83;22.48;;;;;;;15.97;34.59;102325.91;5157923;28;20508;-54
2022/03/10 11:25:41;;;;;;;33.85;21.52;;;;;;;16.11;34.59;102320.06;5159213;28;20500;-50
2022/03/10 11:28:18;;;;;;;36.90;21.50;;;;;;;16.13;34.43;102325.22;5149501;28;20482;-48
2022/03/10 11:30:51;;;;;;;38.95;21.38;;;;;;;16.25;33.87;102312.53;5170628;28;20463;-53
2022/03/10 11:33:34;;;;;;;35.80;22.45;;;;;;;16.27;34.27;102307.91;5161858;28;20428;-53
2022/03/10 11:36:24;;;;;;;36.35;21.33;;;;;;;16.29;34.27;102308.56;5158698;28;20425;-53
2022/03/10 11:38:59;;;;;;;39.88;21.65;;;;;;;16.40;34.27;102319.03;5161839;28;20424;-53
2022/03/10 11:41:47;;;;;;;33.25;19.92;;;;;;;16.42;34.11;102300.22;5162970;28;20445;-53
2022/03/10 11:44:22;;;;;;;33.33;19.70;;;;;;;16.35;34.03;102284.84;5166528;28;21043;-49
2022/03/10 11:46:57;;;;;;;31.77;17.70;;;;;;;16.46;34.00;102299.75;5165124;28;20579;-49
2022/03/10 11:49:39;;;;;;;31.90;19.67;;;;;;;16.43;34.18;102284.06;5148932;28;20413;-52